Time;durP1;ratioP1;P1;durP2;ratioP2;P2;SDS_P1;SDS_P2;PMS_P1;PMS_P2;Temp;Humidity;BMP_temperature;BMP_pressure;BME280_temperature;BME280_humidity;BME280_pressure;Samples;Min_cycle;Max_cycle;Signal;HPM_P1;HPM_P2
2023/11/25 00:01:37;;;;;;;8.45;1.40;;;4.00;91.10;;;;;;5132343;27;20023;-32
2023/11/25 00:04:03;;;;;;;5.28;1.20;;;4.00;91.20;;;;;;5132439;27;20027;-32
2023/11/25 00:06:30;;;;;;;6.72;1.25;;;4.00;91.20;;;;;;5132045;27;20033;-32
2023/11/25 00:08:56;;;;;;;6.80;1.20;;;4.00;91.20;;;;;;5132589;27;20466;-32
2023/11/25 00:11:22;;;;;;;10.25;1.80;;;4.10;91.20;;;;;;5130542;28;20035;-33
2023/11/25 00:13:48;;;;;;;5.85;1.65;;;4.00;91.20;;;;;;5132079;27;20019;-31
2023/11/25 00:16:13;;;;;;;7.47;1.50;;;4.10;91.20;;;;;;5131977;27;20024;-33
2023/11/25 00:18:39;;;;;;;9.73;1.85;;;4.10;91.20;;;;;;5132138;27;20024;-32
2023/11/25 00:21:04;;;;;;;6.32;1.60;;;4.10;91.20;;;;;;5131936;27;20027;-33
2023/11/25 00:23:30;;;;;;;6.25;1.83;;;4.10;91.20;;;;;;5132056;27;20027;-32
2023/11/25 00:25:56;;;;;;;9.18;1.55;;;4.10;91.30;;;;;;5132002;27;20015;-33
2023/11/25 00:28:21;;;;;;;5.32;1.33;;;4.10;91.30;;;;;;5130700;28;20122;-32
2023/11/25 00:30:47;;;;;;;6.38;1.45;;;4.10;91.30;;;;;;5131771;27;20130;-33
2023/11/25 00:33:13;;;;;;;3.78;1.42;;;4.10;91.30;;;;;;5132143;27;20027;-32
2023/11/25 00:35:40;;;;;;;8.95;1.85;;;4.10;91.30;;;;;;5131640;27;20023;-31
2023/11/25 00:38:08;;;;;;;10.98;2.38;;;4.10;91.30;;;;;;5131758;27;20027;-33
2023/11/25 00:40:34;;;;;;;11.35;2.20;;;4.10;91.30;;;;;;5131798;27;20055;-32
2023/11/25 00:43:00;;;;;;;6.72;1.75;;;4.10;91.30;;;;;;5131886;27;20031;-32
2023/11/25 00:45:26;;;;;;;10.65;2.17;;;4.10;91.30;;;;;;5131925;27;20381;-32
2023/11/25 00:47:52;;;;;;;9.32;2.53;;;4.10;91.30;;;;;;5131868;27;20031;-32
2023/11/25 00:50:19;;;;;;;11.80;2.10;;;4.10;91.30;;;;;;5132017;27;20028;-31
2023/11/25 00:52:45;;;;;;;11.85;2.03;;;4.10;91.30;;;;;;5130740;28;20455;-32
2023/11/25 00:55:10;;;;;;;9.40;2.05;;;4.20;91.40;;;;;;5132363;27;20052;-31
2023/11/25 00:57:36;;;;;;;7.65;2.13;;;4.10;91.40;;;;;;5135455;27;20033;-33
2023/11/25 01:00:04;;;;;;;14.27;1.73;;;4.10;91.40;;;;;;5135384;27;20016;-33
2023/11/25 01:02:30;;;;;;;7.65;2.00;;;4.20;91.40;;;;;;5135361;27;20391;-32
2023/11/25 01:04:56;;;;;;;8.85;2.42;;;4.20;91.40;;;;;;5135580;27;20466;-32
2023/11/25 01:07:22;;;;;;;10.90;2.35;;;4.30;91.40;;;;;;5133755;27;20030;-32
2023/11/25 01:09:47;;;;;;;11.18;2.00;;;4.30;91.40;;;;;;5135461;27;20019;-32
2023/11/25 01:12:13;;;;;;;11.98;2.00;;;4.40;91.40;;;;;;5134948;27;20030;-32
2023/11/25 01:14:38;;;;;;;14.02;2.20;;;4.40;91.30;;;;;;5134968;27;20095;-32
2023/11/25 01:17:04;;;;;;;8.48;1.67;;;4.40;91.30;;;;;;5135043;27;20023;-33
2023/11/25 01:19:29;;;;;;;9.13;1.85;;;4.50;91.30;;;;;;5135075;27;20022;-32
2023/11/25 01:21:55;;;;;;;9.60;2.20;;;4.50;91.30;;;;;;5134842;27;20074;-33
2023/11/25 01:24:21;;;;;;;11.73;1.80;;;4.50;91.30;;;;;;5134926;27;20027;-33
2023/11/25 01:26:46;;;;;;;16.90;2.25;;;4.50;91.20;;;;;;5134878;27;20026;-33
2023/11/25 01:29:12;;;;;;;11.70;2.20;;;4.50;91.30;;;;;;5135057;27;20083;-32
2023/11/25 01:31:37;;;;;;;8.73;2.35;;;4.40;91.30;;;;;;5134535;27;20032;-32
2023/11/25 01:34:04;;;;;;;6.60;1.65;;;4.40;91.40;;;;;;5134834;27;20043;-32
2023/11/25 01:36:29;;;;;;;15.43;2.35;;;4.40;91.40;;;;;;5134644;27;20022;-32
2023/11/25 01:38:55;;;;;;;6.35;1.98;;;4.40;91.40;;;;;;5134837;27;20095;-33
2023/11/25 01:41:20;;;;;;;10.88;2.30;;;4.40;91.40;;;;;;5134838;27;20023;-32
2023/11/25 01:43:46;;;;;;;11.23;1.83;;;4.30;91.40;;;;;;5134296;27;20050;-33
2023/11/25 01:46:26;;;;;;;10.23;1.88;;;4.30;91.50;;;;;;5134397;27;20035;-32
2023/11/25 01:48:52;;;;;;;9.65;1.95;;;4.30;91.50;;;;;;5134516;27;20031;-32
2023/11/25 01:51:17;;;;;;;8.15;2.10;;;4.30;91.50;;;;;;5134570;27;20493;-32
2023/11/25 01:53:43;;;;;;;11.65;2.30;;;4.40;91.50;;;;;;5134546;27;20030;-32
2023/11/25 01:56:09;;;;;;;10.40;1.95;;;4.30;91.50;;;;;;5134295;27;20098;-33
2023/11/25 01:58:38;;;;;;;8.07;2.03;;;4.40;91.50;;;;;;5134585;27;20023;-33
2023/11/25 02:01:04;;;;;;;11.48;2.22;;;4.40;91.50;;;;;;5134097;27;20019;-33
2023/11/25 02:03:31;;;;;;;15.68;2.67;;;4.40;91.50;;;;;;5134289;27;20015;-33
2023/11/25 02:05:56;;;;;;;14.57;2.60;;;4.40;91.50;;;;;;5134404;27;20019;-33
2023/11/25 02:08:22;;;;;;;15.70;2.38;;;4.40;91.50;;;;;;5134071;27;20474;-33
2023/11/25 02:10:48;;;;;;;14.18;2.03;;;4.40;91.50;;;;;;5133868;27;20489;-33
2023/11/25 02:13:13;;;;;;;11.73;2.00;;;4.40;91.80;;;;;;5132683;27;20016;-32
2023/11/25 02:15:41;;;;;;;13.10;2.08;;;4.40;91.50;;;;;;5133680;27;20016;-32
2023/11/25 02:18:07;;;;;;;8.73;2.05;;;4.40;91.60;;;;;;5133906;27;20022;-33
2023/11/25 02:20:41;;;;;;;10.52;2.40;;;4.40;91.60;;;;;;5133460;27;20390;-33
2023/11/25 02:23:16;;;;;;;12.00;2.00;;;4.40;91.60;;;;;;5134257;27;20023;-34
2023/11/25 02:25:48;;;;;;;10.48;1.70;;;4.40;91.60;;;;;;5133419;27;20417;-33
2023/11/25 02:28:15;;;;;;;9.95;2.22;;;4.50;91.60;;;;;;5133805;27;20420;-33
2023/11/25 02:30:42;;;;;;;13.18;2.45;;;4.50;91.60;;;;;;5133165;27;20063;-33
2023/11/25 02:33:08;;;;;;;12.48;1.70;;;4.50;91.60;;;;;;5133667;27;20427;-32
2023/11/25 02:35:34;;;;;;;9.75;1.73;;;4.50;91.60;;;;;;5133400;27;20030;-33
2023/11/25 02:38:00;;;;;;;8.45;1.98;;;4.50;91.60;;;;;;5133795;27;20367;-33
2023/11/25 02:40:25;;;;;;;9.70;1.90;;;4.50;91.60;;;;;;5133289;27;20168;-34
2023/11/25 02:42:52;;;;;;;10.75;2.10;;;4.50;91.60;;;;;;5133489;27;20027;-33
2023/11/25 02:45:19;;;;;;;10.98;1.85;;;4.50;91.60;;;;;;5133539;27;20125;-33
2023/11/25 02:47:46;;;;;;;10.38;1.70;;;4.50;91.60;;;;;;5133370;27;20027;-32
2023/11/25 02:50:13;;;;;;;7.60;1.50;;;4.50;91.60;;;;;;5133520;27;20160;-32
2023/11/25 02:52:39;;;;;;;8.88;1.55;;;4.50;91.60;;;;;;5133606;27;20015;-33
2023/11/25 02:55:05;;;;;;;8.55;1.55;;;4.50;91.60;;;;;;5133175;27;20095;-32
2023/11/25 02:57:31;;;;;;;9.00;1.88;;;4.50;91.60;;;;;;5133122;27;20073;-33
2023/11/25 02:59:59;;;;;;;7.78;1.67;;;4.50;91.60;;;;;;5133893;27;20400;-33
2023/11/25 03:02:25;;;;;;;12.25;1.45;;;4.50;91.60;;;;;;5133152;27;20091;-33
2023/11/25 03:04:50;;;;;;;9.65;2.08;;;4.50;91.70;;;;;;5133027;27;20028;-33
2023/11/25 03:07:18;;;;;;;7.65;1.88;;;4.50;91.70;;;;;;5133090;27;20027;-33
2023/11/25 03:09:44;;;;;;;6.72;1.50;;;4.50;91.70;;;;;;5133380;27;20555;-32
2023/11/25 03:12:09;;;;;;;8.80;1.50;;;4.50;91.70;;;;;;5131271;27;20195;-33
2023/11/25 03:14:35;;;;;;;10.63;1.60;;;4.50;91.80;;;;;;5132875;27;20015;-33
2023/11/25 03:17:00;;;;;;;9.70;1.52;;;4.50;91.80;;;;;;5132573;27;20038;-33
2023/11/25 03:19:26;;;;;;;8.70;1.70;;;4.50;91.80;;;;;;5130997;27;20423;-32
2023/11/25 03:21:55;;;;;;;11.73;1.80;;;4.50;91.80;;;;;;5131335;27;20454;-32
2023/11/25 03:24:24;;;;;;;8.07;2.05;;;4.50;91.80;;;;;;5132611;27;20015;-32
2023/11/25 03:26:50;;;;;;;9.73;1.63;;;4.40;91.80;;;;;;5132358;27;20034;-32
2023/11/25 03:29:18;;;;;;;8.18;2.05;;;4.40;91.80;;;;;;5132791;27;20027;-32
2023/11/25 03:31:44;;;;;;;9.65;1.65;;;4.40;91.80;;;;;;5130868;27;20046;-32
2023/11/25 03:34:10;;;;;;;8.23;1.48;;;4.40;91.90;;;;;;5132595;27;20023;-33
2023/11/25 03:36:36;;;;;;;5.82;1.38;;;4.40;91.90;;;;;;5132416;27;20063;-33
2023/11/25 03:39:01;;;;;;;7.18;1.80;;;4.40;91.90;;;;;;5132621;27;20037;-33
2023/11/25 03:41:28;;;;;;;5.75;1.55;;;4.30;91.90;;;;;;5132697;27;20115;-34
2023/11/25 03:43:54;;;;;;;8.07;1.92;;;4.30;91.90;;;;;;5132549;27;20028;-33
2023/11/25 03:46:19;;;;;;;9.88;1.60;;;4.30;91.90;;;;;;5132369;27;20023;-32
2023/11/25 03:48:45;;;;;;;8.57;1.65;;;4.30;91.90;;;;;;5132608;27;20015;-33
2023/11/25 03:51:11;;;;;;;10.10;2.28;;;4.30;91.90;;;;;;5132278;27;20094;-33
2023/11/25 03:53:36;;;;;;;6.82;1.88;;;4.30;91.90;;;;;;5131281;28;20015;-33
2023/11/25 03:56:02;;;;;;;10.32;1.50;;;4.30;92.00;;;;;;5132633;27;20033;-33
2023/11/25 03:58:27;;;;;;;8.68;1.80;;;4.30;92.00;;;;;;5132551;27;20463;-32
2023/11/25 04:00:53;;;;;;;11.40;2.15;;;4.30;92.00;;;;;;5132318;27;20016;-32
2023/11/25 04:03:19;;;;;;;9.48;1.48;;;4.30;91.90;;;;;;5132268;27;20326;-32
2023/11/25 04:05:44;;;;;;;7.93;1.52;;;4.30;91.90;;;;;;5130733;28;20019;-33
2023/11/25 04:08:10;;;;;;;8.85;2.30;;;4.30;91.90;;;;;;5132238;27;20342;-33
2023/11/25 04:10:36;;;;;;;11.63;1.90;;;4.30;91.90;;;;;;5132127;27;20023;-33
2023/11/25 04:13:02;;;;;;;10.48;1.75;;;4.40;91.90;;;;;;5132441;27;20058;-32
2023/11/25 04:15:28;;;;;;;8.23;1.70;;;4.40;91.90;;;;;;5132029;27;20057;-31
2023/11/25 04:17:53;;;;;;;8.98;1.85;;;4.40;91.80;;;;;;5132190;27;20015;-34
2023/11/25 04:20:28;;;;;;;10.38;1.90;;;4.50;91.70;;;;;;5132510;27;20019;-33
2023/11/25 04:22:54;;;;;;;13.07;2.17;;;4.50;91.70;;;;;;5132135;27;20027;-32
2023/11/25 04:25:20;;;;;;;8.30;1.60;;;4.50;91.60;;;;;;5131992;27;20080;-33
2023/11/25 04:27:47;;;;;;;7.82;1.70;;;4.50;91.60;;;;;;5130931;28;20412;-34
2023/11/25 04:30:15;;;;;;;6.07;1.48;;;4.60;91.60;;;;;;5132905;27;20490;-33
2023/11/25 04:32:43;;;;;;;9.20;1.55;;;4.60;91.50;;;;;;5136109;27;20023;-32
2023/11/25 04:35:09;;;;;;;7.20;1.60;;;4.70;91.50;;;;;;5135759;27;20023;-34
2023/11/25 04:37:35;;;;;;;6.28;1.70;;;4.70;91.50;;;;;;5136000;27;20030;-33
2023/11/25 04:40:08;;;;;;;7.55;1.58;;;4.80;91.40;;;;;;5136096;27;20011;-34
2023/11/25 04:42:34;;;;;;;7.55;1.83;;;4.90;91.40;;;;;;5135682;27;20019;-33
2023/11/25 04:45:00;;;;;;;7.70;1.45;;;4.90;91.30;;;;;;5135721;27;20031;-33
2023/11/25 04:47:26;;;;;;;7.47;1.60;;;4.90;91.20;;;;;;5134447;27;20088;-33
2023/11/25 04:49:52;;;;;;;7.20;1.60;;;5.00;91.20;;;;;;5135883;27;20031;-32
2023/11/25 04:52:18;;;;;;;5.88;1.30;;;5.00;91.10;;;;;;5135861;27;20023;-34
2023/11/25 04:54:44;;;;;;;7.35;1.15;;;5.00;91.10;;;;;;5136259;27;20417;-33
2023/11/25 04:57:09;;;;;;;4.93;1.45;;;5.00;91.20;;;;;;5135582;27;20522;-35
2023/11/25 04:59:35;;;;;;;6.43;1.30;;;5.00;91.20;;;;;;5135293;27;20042;-33
2023/11/25 05:02:02;;;;;;;5.57;1.42;;;5.00;91.20;;;;;;5134197;27;20283;-33
2023/11/25 05:04:28;;;;;;;6.00;1.50;;;5.00;91.20;;;;;;5135338;27;20027;-34
2023/11/25 05:06:53;;;;;;;10.10;1.88;;;5.00;91.30;;;;;;5135048;27;20027;-33
2023/11/25 05:09:19;;;;;;;6.70;1.60;;;5.00;91.30;;;;;;5135314;27;20102;-34
2023/11/25 05:11:45;;;;;;;9.68;1.75;;;5.00;91.30;;;;;;5134983;27;20421;-31
2023/11/25 05:14:11;;;;;;;5.38;1.50;;;5.00;91.30;;;;;;5135197;27;20022;-32
2023/11/25 05:16:36;;;;;;;9.30;1.55;;;5.00;91.30;;;;;;5135042;27;20030;-33
2023/11/25 05:19:03;;;;;;;6.55;1.30;;;5.00;91.30;;;;;;5134819;27;20035;-32
2023/11/25 05:21:30;;;;;;;6.60;1.45;;;4.90;91.40;;;;;;5133740;27;20504;-32
2023/11/25 05:23:55;;;;;;;4.47;1.35;;;4.90;91.40;;;;;;5135277;27;20058;-32
2023/11/25 05:26:23;;;;;;;7.68;1.60;;;4.80;91.40;;;;;;5134718;27;20186;-31
2023/11/25 05:28:48;;;;;;;4.95;1.23;;;4.80;91.50;;;;;;5135333;27;20386;-32
2023/11/25 05:31:14;;;;;;;8.18;1.40;;;4.80;91.50;;;;;;5134133;27;20050;-31
2023/11/25 05:33:40;;;;;;;6.95;1.48;;;4.70;91.60;;;;;;5135007;27;20015;-32
2023/11/25 05:36:06;;;;;;;9.60;1.80;;;4.70;91.60;;;;;;5134541;27;20026;-32
2023/11/25 05:38:31;;;;;;;4.97;1.33;;;4.60;91.70;;;;;;5135025;27;20080;-32
2023/11/25 05:40:57;;;;;;;12.45;1.70;;;4.60;91.70;;;;;;5134110;27;20027;-33
2023/11/25 05:43:25;;;;;;;11.57;2.17;;;4.60;92.00;;;;;;5134973;27;20030;-32
2023/11/25 05:45:51;;;;;;;5.95;1.55;;;4.50;91.70;;;;;;5134375;27;20031;-32
2023/11/25 05:48:18;;;;;;;7.18;1.52;;;4.50;91.80;;;;;;5134539;27;20061;-33
2023/11/25 05:50:44;;;;;;;9.77;2.42;;;4.50;91.80;;;;;;5134607;27;20102;-33
2023/11/25 05:53:10;;;;;;;6.13;1.73;;;4.50;91.80;;;;;;5134517;27;20106;-33
2023/11/25 05:55:36;;;;;;;10.40;2.08;;;4.50;91.80;;;;;;5134499;27;20022;-33
2023/11/25 05:58:01;;;;;;;7.97;1.65;;;4.50;91.80;;;;;;5134294;27;20027;-32
2023/11/25 06:00:29;;;;;;;8.45;1.52;;;4.50;91.80;;;;;;5134254;27;20019;-33
2023/11/25 06:02:55;;;;;;;8.43;2.00;;;4.50;91.80;;;;;;5134219;27;20019;-33
2023/11/25 06:05:21;;;;;;;5.00;1.25;;;4.50;91.80;;;;;;5134299;27;20482;-32
2023/11/25 06:07:46;;;;;;;8.45;1.83;;;4.50;91.80;;;;;;5134194;27;20034;-33
2023/11/25 06:10:12;;;;;;;7.22;1.65;;;4.40;91.80;;;;;;5134119;27;20022;-32
2023/11/25 06:12:38;;;;;;;8.82;1.20;;;4.40;91.80;;;;;;5134030;27;20055;-32
2023/11/25 06:15:05;;;;;;;7.55;1.35;;;4.40;91.90;;;;;;5133973;27;20454;-33
2023/11/25 06:17:32;;;;;;;9.38;1.45;;;4.40;91.90;;;;;;5133672;27;20511;-32
2023/11/25 06:19:58;;;;;;;8.77;1.30;;;4.30;91.90;;;;;;5133984;27;20038;-33
2023/11/25 06:22:24;;;;;;;5.63;1.30;;;4.40;91.90;;;;;;5134250;27;20034;-32
2023/11/25 06:24:49;;;;;;;5.35;1.02;;;4.40;92.00;;;;;;5134142;27;20023;-32
2023/11/25 06:27:16;;;;;;;7.90;1.40;;;4.40;92.00;;;;;;5133714;27;20023;-32
2023/11/25 06:29:43;;;;;;;4.28;1.17;;;4.50;92.00;;;;;;5133548;27;20031;-32
2023/11/25 06:32:08;;;;;;;4.65;0.90;;;4.50;91.90;;;;;;5133644;27;20035;-33
2023/11/25 06:34:34;;;;;;;9.15;1.33;;;4.50;91.90;;;;;;5133671;27;20022;-32
2023/11/25 06:37:00;;;;;;;2.92;0.73;;;4.50;91.90;;;;;;5133329;27;20027;-32
2023/11/25 06:39:31;;;;;;;3.83;0.90;;;4.40;91.90;;;;;;5133503;27;20024;-32
2023/11/25 06:41:56;;;;;;;6.80;1.00;;;4.50;91.90;;;;;;5133789;27;20027;-33
2023/11/25 06:44:22;;;;;;;3.03;0.80;;;4.50;91.90;;;;;;5133647;27;20092;-33
2023/11/25 06:46:49;;;;;;;8.70;1.30;;;4.50;92.20;;;;;;5133174;27;20031;-33
2023/11/25 06:49:15;;;;;;;3.65;0.75;;;4.50;91.90;;;;;;5133828;27;20027;-33
2023/11/25 06:51:41;;;;;;;4.05;0.93;;;4.50;91.90;;;;;;5132973;27;20076;-33
2023/11/25 06:54:08;;;;;;;3.08;0.88;;;4.60;91.90;;;;;;5132749;27;20458;-33
2023/11/25 06:56:35;;;;;;;2.40;0.80;;;4.60;91.90;;;;;;5133135;27;20080;-29
2023/11/25 06:59:01;;;;;;;7.22;0.98;;;4.70;91.90;;;;;;5133494;27;20053;-33
2023/11/25 07:01:27;;;;;;;7.20;1.02;;;4.70;91.80;;;;;;5133005;27;20019;-32
2023/11/25 07:03:53;;;;;;;4.63;1.00;;;4.80;91.80;;;;;;5132865;27;20065;-33
2023/11/25 07:06:18;;;;;;;7.72;1.25;;;4.70;91.80;;;;;;5133380;27;20477;-32
2023/11/25 07:08:45;;;;;;;7.30;1.67;;;4.80;91.80;;;;;;5132774;27;20026;-33
2023/11/25 07:11:13;;;;;;;9.48;1.52;;;4.80;91.80;;;;;;5133140;27;20076;-34
2023/11/25 07:13:39;;;;;;;3.83;0.90;;;4.80;91.80;;;;;;5132885;27;20027;-33
2023/11/25 07:16:06;;;;;;;5.72;1.17;;;4.90;91.90;;;;;;5133008;27;20485;-33
2023/11/25 07:18:32;;;;;;;4.28;0.80;;;4.80;91.80;;;;;;5132689;27;20592;-33
2023/11/25 07:20:59;;;;;;;4.32;1.00;;;4.80;91.80;;;;;;5133247;27;20106;-33
2023/11/25 07:23:25;;;;;;;9.30;1.20;;;4.80;91.80;;;;;;5131579;27;20023;-32
2023/11/25 07:25:51;;;;;;;2.38;1.00;;;4.80;91.90;;;;;;5132648;27;20015;-32
2023/11/25 07:28:17;;;;;;;4.13;1.10;;;4.80;91.90;;;;;;5132839;27;20148;-33
2023/11/25 07:30:44;;;;;;;3.58;0.98;;;4.80;91.90;;;;;;5132679;27;20042;-32
2023/11/25 07:33:10;;;;;;;1.42;0.68;;;4.80;91.90;;;;;;5132714;27;20027;-33
2023/11/25 07:35:36;;;;;;;3.95;0.90;;;4.80;91.90;;;;;;5132488;27;20030;-32
2023/11/25 07:38:05;;;;;;;2.42;0.90;;;4.90;91.90;;;;;;5132536;27;20411;-33
2023/11/25 07:40:30;;;;;;;3.78;0.80;;;4.90;91.90;;;;;;5132526;27;20019;-33
2023/11/25 07:42:56;;;;;;;2.28;0.82;;;4.90;92.00;;;;;;5132621;27;20019;-34
2023/11/25 07:45:22;;;;;;;5.07;0.80;;;4.90;92.00;;;;;;5132352;27;20057;-32
2023/11/25 07:47:47;;;;;;;4.97;1.27;;;4.90;92.00;;;;;;5132273;27;20015;-32
2023/11/25 07:50:14;;;;;;;4.13;1.00;;;5.00;92.00;;;;;;5132596;27;20027;-33
2023/11/25 07:52:39;;;;;;;12.80;1.77;;;5.00;92.00;;;;;;5132436;27;20042;-32
2023/11/25 07:55:06;;;;;;;6.10;1.17;;;5.10;91.90;;;;;;5131016;28;20015;-31
2023/11/25 07:57:32;;;;;;;3.42;1.00;;;5.10;91.90;;;;;;5132572;27;20020;-33
2023/11/25 07:59:58;;;;;;;2.03;0.90;;;5.10;91.90;;;;;;5132696;27;20019;-32
2023/11/25 08:02:24;;;;;;;5.80;1.30;;;5.10;91.90;;;;;;5132292;27;20027;-32
2023/11/25 08:04:50;;;;;;;5.38;1.20;;;5.10;92.00;;;;;;5134610;27;20114;-33
2023/11/25 08:07:16;;;;;;;4.10;1.63;;;5.20;92.00;;;;;;5136639;27;20027;-33
2023/11/25 08:09:42;;;;;;;4.15;1.02;;;5.30;92.00;;;;;;5136486;27;20478;-32
2023/11/25 08:12:08;;;;;;;7.57;0.90;;;5.30;91.90;;;;;;5136971;27;20047;-33
2023/11/25 08:14:35;;;;;;;4.60;1.10;;;5.40;91.90;;;;;;5136101;27;20074;-33
2023/11/25 08:17:01;;;;;;;3.50;1.00;;;5.30;91.80;;;;;;5136490;27;20030;-33
2023/11/25 08:19:26;;;;;;;3.30;0.73;;;5.40;91.80;;;;;;5136214;27;20019;-33
2023/11/25 08:21:52;;;;;;;6.78;1.20;;;5.40;91.80;;;;;;5136508;27;20088;-32
2023/11/25 08:24:18;;;;;;;4.72;1.15;;;5.50;91.80;;;;;;5136119;27;20105;-33
2023/11/25 08:26:44;;;;;;;2.72;0.60;;;5.40;91.70;;;;;;5136275;27;20486;-32
2023/11/25 08:29:11;;;;;;;5.35;1.20;;;5.40;91.70;;;;;;5136216;27;20594;-33
2023/11/25 08:31:38;;;;;;;3.42;0.68;;;5.40;91.80;;;;;;5117553;27;20035;-33
2023/11/25 08:34:11;;;;;;;4.07;0.73;;;5.40;91.80;;;;;;5135919;27;20428;-31
2023/11/25 08:36:44;;;;;;;3.65;0.70;;;5.40;91.80;;;;;;5136087;27;20023;-32
2023/11/25 08:39:13;;;;;;;7.70;1.05;;;5.40;91.80;;;;;;5136157;27;20023;-33
2023/11/25 08:41:45;;;;;;;2.55;0.80;;;5.40;91.80;;;;;;5136063;27;20091;-32
2023/11/25 08:44:13;;;;;;;2.20;0.90;;;5.50;91.90;;;;;;5135753;27;20355;-32
2023/11/25 08:46:40;;;;;;;3.15;0.75;;;5.50;91.90;;;;;;5135882;27;20035;-32
2023/11/25 08:49:07;;;;;;;3.15;0.85;;;5.50;91.90;;;;;;5135912;27;20027;-32
2023/11/25 08:51:33;;;;;;;4.72;0.98;;;5.50;91.90;;;;;;5135678;27;20053;-32
2023/11/25 08:53:58;;;;;;;3.45;0.70;;;5.60;91.80;;;;;;5135432;27;20098;-33
2023/11/25 08:56:25;;;;;;;2.53;0.90;;;5.60;91.80;;;;;;5135408;27;20019;-33
2023/11/25 08:58:51;;;;;;;2.63;0.60;;;5.70;91.80;;;;;;5135463;27;20030;-33
2023/11/25 09:01:16;;;;;;;2.03;0.73;;;5.70;91.80;;;;;;5135701;27;20474;-33
2023/11/25 09:03:42;;;;;;;3.63;0.75;;;5.70;91.70;;;;;;5134976;27;20094;-32
2023/11/25 09:06:08;;;;;;;7.10;1.13;;;5.70;91.70;;;;;;5135640;27;20054;-33
2023/11/25 09:08:33;;;;;;;4.13;0.82;;;5.70;91.70;;;;;;5135584;27;20514;-33
2023/11/25 09:11:01;;;;;;;3.03;1.08;;;5.80;91.80;;;;;;5135750;27;20023;-36
2023/11/25 09:13:26;;;;;;;3.53;0.90;;;5.80;91.80;;;;;;5134045;27;20502;-33
2023/11/25 09:15:52;;;;;;;3.55;0.57;;;5.90;91.80;;;;;;5134134;27;20027;-34
2023/11/25 09:18:18;;;;;;;2.88;0.90;;;5.90;91.80;;;;;;5134978;27;20107;-33
2023/11/25 09:20:44;;;;;;;5.32;1.10;;;6.00;91.70;;;;;;5135047;27;20057;-32
2023/11/25 09:23:11;;;;;;;4.28;0.90;;;6.10;91.70;;;;;;5135017;27;20023;-34
2023/11/25 09:25:36;;;;;;;4.45;1.00;;;6.20;91.60;;;;;;5135372;27;20019;-39
2023/11/25 09:28:03;;;;;;;3.45;0.90;;;6.30;91.50;;;;;;5133529;27;20435;-31
2023/11/25 09:30:29;;;;;;;3.38;0.95;;;6.50;91.40;;;;;;5135038;27;20451;-31
2023/11/25 09:32:54;;;;;;;5.70;1.00;;;6.50;91.20;;;;;;5134482;27;20067;-32
2023/11/25 09:35:21;;;;;;;5.25;1.00;;;6.50;91.00;;;;;;5135048;27;20334;-43
2023/11/25 09:37:48;;;;;;;5.93;1.40;;;6.50;91.10;;;;;;5134615;27;20023;-34
2023/11/25 09:40:14;;;;;;;5.75;1.48;;;6.50;91.10;;;;;;5133563;27;20091;-36
2023/11/25 09:42:44;;;;;;;4.78;1.30;;;6.50;91.20;;;;;;5134647;27;20023;-38
2023/11/25 09:45:10;;;;;;;4.38;1.30;;;6.50;91.20;;;;;;5134481;27;20110;-42
2023/11/25 09:47:43;;;;;;;4.32;1.30;;;6.50;91.00;;;;;;5134379;27;20125;-32
2023/11/25 09:50:09;;;;;;;3.97;1.27;;;6.50;91.00;;;;;;5134812;27;20027;-33
2023/11/25 09:52:58;;;;;;;5.38;1.10;;;6.50;90.90;;;;;;5134210;27;20106;-32
2023/11/25 09:55:23;;;;;;;3.30;1.00;;;6.50;91.00;;;;;;5134200;27;20434;-35
2023/11/25 09:57:53;;;;;;;6.68;1.05;;;6.50;91.00;;;;;;5134488;27;20078;-32
2023/11/25 10:00:21;;;;;;;5.72;1.20;;;6.60;91.00;;;;;;5134619;27;20371;-32
2023/11/25 10:02:52;;;;;;;4.28;1.15;;;6.60;90.90;;;;;;5134209;27;20470;-33
2023/11/25 10:05:18;;;;;;;4.13;1.60;;;6.70;90.90;;;;;;5134605;27;20498;-32
2023/11/25 10:07:43;;;;;;;3.35;0.90;;;6.70;90.80;;;;;;5133902;27;20019;-32
2023/11/25 10:10:10;;;;;;;5.13;1.13;;;6.80;90.80;;;;;;5134517;27;20038;-32
2023/11/25 10:12:40;;;;;;;8.07;1.60;;;6.90;90.70;;;;;;5132467;27;20027;-31
2023/11/25 10:15:07;;;;;;;3.17;1.00;;;6.90;90.60;;;;;;5133917;27;20068;-32
2023/11/25 10:17:33;;;;;;;3.90;1.13;;;6.90;90.60;;;;;;5134169;27;20015;-33
2023/11/25 10:20:22;;;;;;;5.57;1.50;;;7.00;90.60;;;;;;5133809;27;20123;-33
2023/11/25 10:22:57;;;;;;;4.05;1.50;;;7.00;90.50;;;;;;5133763;27;20023;-32
2023/11/25 10:25:25;;;;;;;8.57;1.23;;;7.10;90.50;;;;;;5133482;27;20031;-32
2023/11/25 10:27:52;;;;;;;11.35;1.70;;;7.10;90.50;;;;;;5134208;27;20023;-32
2023/11/25 10:30:17;;;;;;;6.03;1.38;;;7.00;90.50;;;;;;5133522;27;20039;-32
2023/11/25 10:32:44;;;;;;;8.32;1.45;;;7.00;90.50;;;;;;5133868;27;20079;-32
2023/11/25 10:35:10;;;;;;;5.35;1.35;;;7.00;90.60;;;;;;5133936;27;20054;-33
2023/11/25 10:37:40;;;;;;;8.10;1.90;;;7.10;90.60;;;;;;5133695;27;20039;-32
2023/11/25 10:40:10;;;;;;;5.35;1.40;;;7.10;90.60;;;;;;5133658;27;20107;-32
2023/11/25 10:42:45;;;;;;;6.30;1.60;;;7.10;90.60;;;;;;5133760;27;20038;-32
2023/11/25 10:45:18;;;;;;;8.77;1.60;;;7.20;90.60;;;;;;5133403;27;20106;-32
2023/11/25 10:47:44;;;;;;;9.07;1.45;;;7.20;90.70;;;;;;5132994;27;20058;-32
2023/11/25 10:50:11;;;;;;;10.05;2.08;;;7.40;90.70;;;;;;5133352;27;20034;-32
2023/11/25 10:52:38;;;;;;;5.55;1.45;;;7.50;90.60;;;;;;5131765;27;20467;-32
2023/11/25 10:55:08;;;;;;;11.82;1.77;;;7.60;90.50;;;;;;5132989;27;20011;-32
2023/11/25 10:57:35;;;;;;;7.43;1.58;;;7.70;90.50;;;;;;5133008;27;20030;-32
2023/11/25 11:00:04;;;;;;;6.82;1.70;;;7.90;90.30;;;;;;5133182;27;20019;-33
2023/11/25 11:02:36;;;;;;;5.03;1.48;;;8.00;90.10;;;;;;5131579;27;20068;-32
2023/11/25 11:05:08;;;;;;;9.60;1.85;;;8.00;90.00;;;;;;5133162;27;20031;-32
2023/11/25 11:07:38;;;;;;;9.60;2.13;;;8.00;90.00;;;;;;5133326;27;20079;-32
2023/11/25 11:10:07;;;;;;;8.75;1.70;;;7.80;89.60;;;;;;5133427;27;20507;-32
2023/11/25 11:12:50;;;;;;;7.22;1.50;;;7.70;89.70;;;;;;5132665;27;20019;-31
2023/11/25 11:15:18;;;;;;;4.85;1.35;;;7.50;90.10;;;;;;5132735;27;20042;-32
2023/11/25 11:18:06;;;;;;;6.18;1.70;;;7.30;90.30;;;;;;5132878;27;20017;-31
2023/11/25 11:20:36;;;;;;;5.70;1.33;;;7.30;90.50;;;;;;5132728;27;20038;-31
2023/11/25 11:23:04;;;;;;;4.63;1.40;;;7.30;90.60;;;;;;5132693;27;20035;-31
2023/11/25 11:25:43;;;;;;;8.38;1.67;;;7.30;90.70;;;;;;5132684;27;20604;-31
2023/11/25 11:28:17;;;;;;;3.25;1.20;;;7.40;90.70;;;;;;5132635;27;20034;-31
2023/11/25 11:31:07;;;;;;;6.50;1.23;;;7.40;90.70;;;;;;5131350;27;20478;-31
2023/11/25 11:33:33;;;;;;;6.68;1.40;;;7.50;90.80;;;;;;5132172;27;20031;-32
2023/11/25 11:35:58;;;;;;;5.53;1.45;;;7.50;90.80;;;;;;5132441;27;20493;-32
2023/11/25 11:38:32;;;;;;;8.50;2.25;;;7.60;90.80;;;;;;5132191;27;20156;-32
2023/11/25 11:41:20;;;;;;;8.77;2.28;;;7.70;90.60;;;;;;5131203;27;20031;-32
2023/11/25 11:44:06;;;;;;;6.75;1.40;;;7.70;90.50;;;;;;5131709;27;20027;-32
2023/11/25 11:46:38;;;;;;;11.13;1.70;;;7.70;90.30;;;;;;5132206;27;20046;-30
2023/11/25 11:49:07;;;;;;;7.00;1.77;;;7.70;90.30;;;;;;5130824;28;20023;-32
2023/11/25 11:51:33;;;;;;;10.95;1.77;;;7.80;90.30;;;;;;5132641;27;20124;-31
2023/11/25 11:54:17;;;;;;;10.93;2.50;;;7.80;90.00;;;;;;5132320;27;20019;-32
2023/11/25 11:57:02;;;;;;;7.43;1.77;;;7.90;90.00;;;;;;5132358;27;20555;-37
2023/11/25 12:00:15;;;;;;;7.97;1.88;;;8.00;89.90;;;;;;5132238;27;20107;-32
2023/11/25 12:02:42;;;;;;;8.35;1.70;;;8.10;89.80;;;;;;5132135;27;20030;-30
2023/11/25 12:05:09;;;;;;;5.32;1.30;;;8.30;89.40;;;;;;5132576;27;20129;-31
2023/11/25 12:07:35;;;;;;;8.77;1.90;;;8.30;89.20;;;;;;5132638;27;20038;-31
2023/11/25 12:10:01;;;;;;;6.53;1.70;;;8.40;88.80;;;;;;5132249;27;20023;-31
2023/11/25 12:12:27;;;;;;;8.70;1.65;;;8.50;88.70;;;;;;5130825;28;20073;-32
2023/11/25 12:14:52;;;;;;;13.57;2.55;;;8.60;88.70;;;;;;5132404;27;20019;-31
2023/11/25 12:17:18;;;;;;;7.90;1.48;;;8.60;88.10;;;;;;5130826;28;20047;-32
2023/11/25 12:19:44;;;;;;;10.02;2.05;;;8.60;87.50;;;;;;5132262;27;20360;-32
2023/11/25 12:22:11;;;;;;;8.82;1.70;;;8.60;87.30;;;;;;5132311;27;20407;-32
2023/11/25 12:24:39;;;;;;;4.55;1.38;;;8.50;87.60;;;;;;5131853;27;20019;-31
2023/11/25 12:27:07;;;;;;;6.75;1.60;;;8.60;88.00;;;;;;5132414;27;20027;-32
2023/11/25 12:29:36;;;;;;;7.70;1.85;;;8.60;87.70;;;;;;5132448;27;20479;-32
2023/11/25 12:32:02;;;;;;;7.03;1.60;;;8.60;87.50;;;;;;5132008;27;20043;-32
2023/11/25 12:34:29;;;;;;;7.20;1.30;;;8.40;87.50;;;;;;5131847;27;20023;-30
2023/11/25 12:36:59;;;;;;;3.53;0.88;;;8.30;88.00;;;;;;5132484;27;20514;-31
2023/11/25 12:39:26;;;;;;;5.43;1.20;;;8.20;88.50;;;;;;5131902;27;20103;-30
2023/11/25 12:41:53;;;;;;;7.78;1.55;;;8.20;88.80;;;;;;5131435;27;20419;-35
2023/11/25 12:44:20;;;;;;;9.48;2.22;;;8.10;88.70;;;;;;5131303;27;20023;-30
2023/11/25 12:47:04;;;;;;;8.23;2.10;;;8.20;88.50;;;;;;5131931;27;20043;-31
2023/11/25 12:49:30;;;;;;;12.20;2.22;;;8.30;88.50;;;;;;5131333;27;20023;-31
2023/11/25 12:51:55;;;;;;;12.40;2.08;;;8.40;88.30;;;;;;5133613;27;20118;-32
2023/11/25 12:54:21;;;;;;;13.15;2.03;;;8.50;87.70;;;;;;5135329;27;20573;-37
2023/11/25 12:56:54;;;;;;;13.02;2.83;;;8.50;87.20;;;;;;5135485;27;20027;-32